createdAt,value
2018-02-03T00:02:02.826Z,91.50
2018-02-03T00:04:31.808Z,91.80
2018-02-03T00:07:00.799Z,91.60
2018-02-03T00:09:29.862Z,91.60
2018-02-03T00:11:58.059Z,91.60
2018-02-03T00:14:27.060Z,91.40
2018-02-03T00:16:56.009Z,91.20
2018-02-03T00:19:24.850Z,91.30
2018-02-03T00:21:53.080Z,91.00
2018-02-03T00:24:21.391Z,90.60
2018-02-03T00:26:49.659Z,90.70
2018-02-03T00:29:18.632Z,90.50
2018-02-03T00:31:46.836Z,90.40
2018-02-03T00:34:15.068Z,90.50
2018-02-03T00:36:43.276Z,90.20
2018-02-03T00:39:12.252Z,90.20
2018-02-03T00:41:40.433Z,90.20
2018-02-03T00:44:09.416Z,90.50
2018-02-03T00:46:38.384Z,90.70
2018-02-03T00:49:06.706Z,90.50
2018-02-03T00:51:35.488Z,90.70
2018-02-03T00:54:04.518Z,91.40
2018-02-03T00:56:32.717Z,91.40
2018-02-03T00:59:01.028Z,92.20
2018-02-03T01:01:30.018Z,93.40
2018-02-03T01:03:58.992Z,94.30
2018-02-03T01:06:27.697Z,94.40
2018-02-03T01:08:56.716Z,95.20
2018-02-03T01:11:24.916Z,95.20
2018-02-03T01:13:53.125Z,95.50
2018-02-03T01:16:21.334Z,96.20
2018-02-03T01:18:49.541Z,95.80
2018-02-03T01:21:17.841Z,95.90
2018-02-03T01:23:46.136Z,96.20
2018-02-03T01:26:15.109Z,96.00
2018-02-03T01:28:43.332Z,96.00
2018-02-03T01:31:11.513Z,96.20
2018-02-03T01:33:39.940Z,95.80
2018-02-03T01:36:08.137Z,95.90
2018-02-03T01:38:36.520Z,96.00
2018-02-03T01:41:05.227Z,95.50
2018-02-03T01:43:33.412Z,95.50
2018-02-03T01:46:01.874Z,95.40
2018-02-03T01:48:30.092Z,95.50
2018-02-03T01:50:58.333Z,95.00
2018-02-03T01:53:26.539Z,95.00
2018-02-03T01:55:54.740Z,95.00
2018-02-03T01:58:23.732Z,95.20
2018-02-03T02:00:52.704Z,95.00
2018-02-03T02:03:20.998Z,95.00
2018-02-03T02:05:49.945Z,95.20
2018-02-03T02:08:18.173Z,95.20
2018-02-03T02:10:46.361Z,94.60
2018-02-03T02:13:14.660Z,94.90
2018-02-03T02:15:43.350Z,94.80
2018-02-03T02:18:11.557Z,94.90
2018-02-03T02:20:39.756Z,95.40
2018-02-03T02:23:08.029Z,94.80
2018-02-03T02:25:36.476Z,95.10
2018-02-03T02:28:04.661Z,95.10
2018-02-03T02:30:33.620Z,94.80
2018-02-03T02:33:01.825Z,94.90
2018-02-03T02:35:30.009Z,95.40
2018-02-03T02:37:58.985Z,95.50
2018-02-03T02:40:27.276Z,95.40
2018-02-03T02:42:56.227Z,95.40
2018-02-03T02:45:24.456Z,95.50
2018-02-03T02:47:52.699Z,95.40
2018-02-03T02:50:20.918Z,95.70
2018-02-03T02:52:49.136Z,95.50
2018-02-03T02:55:17.366Z,95.20
2018-02-03T02:57:45.550Z,95.30
2018-02-03T03:00:13.763Z,95.00
2018-02-03T03:02:42.265Z,94.90
2018-02-03T03:05:11.274Z,94.50
2018-02-03T03:07:39.483Z,94.50
2018-02-03T03:10:07.674Z,94.70
2018-02-03T03:12:36.085Z,94.80
2018-02-03T03:15:05.051Z,95.20
2018-02-03T03:17:33.392Z,95.20
2018-02-03T03:20:01.604Z,95.10
2018-02-03T03:22:29.810Z,94.90
2018-02-03T03:24:58.804Z,94.80
2018-02-03T03:27:27.046Z,94.90
2018-02-03T03:29:55.256Z,94.70
2018-02-03T03:32:23.464Z,94.70
2018-02-03T03:34:51.692Z,94.10
2018-02-03T03:37:21.604Z,94.20
2018-02-03T03:39:50.575Z,94.40
2018-02-03T03:42:18.776Z,94.50
2018-02-03T03:44:47.016Z,94.20
2018-02-03T03:47:15.222Z,94.10
2018-02-03T03:49:43.400Z,94.10
2018-02-03T03:52:11.665Z,94.10
2018-02-03T03:54:39.845Z,94.10
2018-02-03T03:57:08.808Z,94.40
2018-02-03T03:59:37.034Z,94.10
2018-02-03T04:02:05.401Z,94.30
2018-02-03T04:04:33.617Z,94.40
2018-02-03T04:07:01.793Z,94.30
2018-02-03T04:09:29.977Z,94.00
2018-02-03T04:11:58.390Z,94.20
2018-02-03T04:14:26.624Z,94.20
2018-02-03T04:16:54.885Z,94.10
2018-02-03T04:19:23.107Z,94.10
2018-02-03T04:21:51.296Z,93.20
2018-02-03T04:24:19.559Z,94.10
2018-02-03T04:26:47.763Z,93.90
2018-02-03T04:29:15.983Z,94.10
2018-02-03T04:31:44.184Z,93.80
2018-02-03T04:34:12.393Z,94.10
2018-02-03T04:36:40.597Z,93.80
2018-02-03T04:39:08.864Z,93.70
2018-02-03T04:41:37.050Z,93.90
2018-02-03T04:44:05.341Z,93.60
2018-02-03T04:46:35.024Z,93.70
2018-02-03T04:49:03.529Z,93.70
2018-02-03T04:51:32.476Z,93.40
2018-02-03T04:54:00.718Z,93.40
2018-02-03T04:56:28.958Z,94.10
2018-02-03T04:58:57.962Z,93.20
2018-02-03T05:01:26.912Z,93.20
2018-02-03T05:03:55.113Z,93.20
2018-02-03T05:06:24.094Z,93.60
2018-02-03T05:08:52.300Z,93.50
2018-02-03T05:11:20.549Z,93.90
2018-02-03T05:13:48.755Z,93.90
2018-02-03T05:16:16.951Z,94.40
2018-02-03T05:18:45.168Z,93.90
2018-02-03T05:21:13.396Z,94.30
2018-02-03T05:23:41.646Z,94.00
2018-02-03T05:26:09.832Z,94.20
2018-02-03T05:28:38.412Z,94.00
2018-02-03T05:31:06.657Z,94.00
2018-02-03T05:33:35.616Z,94.00
2018-02-03T05:36:03.838Z,94.00
2018-02-03T05:38:32.052Z,93.80
2018-02-03T05:41:00.256Z,93.60
2018-02-03T05:43:28.432Z,93.30
2018-02-03T05:45:56.661Z,93.10
2018-02-03T05:48:24.849Z,92.80
2018-02-03T05:50:53.353Z,92.70
2018-02-03T05:53:21.630Z,93.10
2018-02-03T05:55:49.844Z,93.00
2018-02-03T05:58:18.488Z,93.30
2018-02-03T06:00:46.688Z,93.40
2018-02-03T06:03:15.681Z,93.10
2018-02-03T06:05:43.915Z,93.10
2018-02-03T06:08:12.634Z,93.20
2018-02-03T06:10:41.581Z,93.10
2018-02-03T06:13:10.016Z,93.10
2018-02-03T06:15:38.265Z,92.60
2018-02-03T06:18:06.475Z,92.90
2018-02-03T06:20:34.709Z,93.00
2018-02-03T06:23:02.900Z,92.90
2018-02-03T06:25:31.867Z,92.70
2018-02-03T06:28:00.116Z,92.70
2018-02-03T06:30:28.329Z,92.50
2018-02-03T06:32:57.281Z,92.70
2018-02-03T06:35:25.923Z,92.50
2018-02-03T06:37:54.905Z,92.60
2018-02-03T06:40:23.883Z,92.80
2018-02-03T06:42:52.088Z,92.80
2018-02-03T06:45:20.337Z,92.70
2018-02-03T06:47:48.713Z,92.50
2018-02-03T06:50:16.892Z,92.70
2018-02-03T06:52:45.864Z,93.20
2018-02-03T06:55:14.090Z,93.00
2018-02-03T06:57:42.278Z,92.90
2018-02-03T07:00:10.604Z,92.90
2018-02-03T07:02:39.816Z,92.50
2018-02-03T07:05:08.761Z,93.00
2018-02-03T07:07:37.601Z,93.00
2018-02-03T07:10:05.808Z,92.60
2018-02-03T07:12:33.997Z,92.90
2018-02-03T07:15:02.430Z,93.00
2018-02-03T07:17:30.617Z,92.80
2018-02-03T07:19:58.792Z,92.80
2018-02-03T07:22:27.022Z,93.00
2018-02-03T07:24:55.224Z,92.80
2018-02-03T07:27:23.512Z,93.30
2018-02-03T07:29:51.732Z,92.80
2018-02-03T07:32:19.932Z,93.20
2018-02-03T07:34:48.913Z,92.50
2018-02-03T07:37:17.245Z,92.50
2018-02-03T07:39:45.476Z,92.20
2018-02-03T07:42:14.434Z,92.60
2018-02-03T07:44:42.679Z,92.60
2018-02-03T07:47:10.874Z,92.60
2018-02-03T07:49:39.085Z,92.30
2018-02-03T07:52:08.077Z,92.60
2018-02-03T07:54:37.073Z,92.70
2018-02-03T07:57:06.040Z,92.10
2018-02-03T07:59:34.248Z,92.10
2018-02-03T08:02:02.466Z,91.90
2018-02-03T08:04:30.733Z,92.00
2018-02-03T08:06:58.973Z,92.00
2018-02-03T08:09:27.201Z,91.50
2018-02-03T08:11:55.381Z,91.30
2018-02-03T08:14:23.580Z,91.10
2018-02-03T08:16:52.592Z,91.10
2018-02-03T08:19:20.801Z,91.10
2018-02-03T08:21:48.993Z,91.10
2018-02-03T08:24:17.820Z,91.10
2018-02-03T08:26:46.012Z,91.10
2018-02-03T08:29:14.649Z,91.20
2018-02-03T08:31:43.368Z,91.30
2018-02-03T08:34:11.573Z,91.10
2018-02-03T08:36:39.786Z,91.40
2018-02-03T08:39:08.019Z,91.40
2018-02-03T08:41:36.204Z,91.30
2018-02-03T08:44:04.377Z,91.40
2018-02-03T08:46:32.572Z,91.00
2018-02-03T08:49:00.842Z,90.40
2018-02-03T08:51:29.064Z,90.20
2018-02-03T08:53:57.301Z,90.00
2018-02-03T08:56:25.522Z,88.00
2018-02-03T08:58:53.737Z,87.70
2018-02-03T09:01:21.940Z,90.00
2018-02-03T09:03:52.293Z,91.00
2018-02-03T09:06:20.954Z,91.00
2018-02-03T09:08:50.214Z,91.40
2018-02-03T09:11:18.415Z,91.30
2018-02-03T09:13:47.400Z,91.90
2018-02-03T09:16:15.734Z,91.90
2018-02-03T09:18:43.969Z,92.20
2018-02-03T09:21:12.941Z,92.60
2018-02-03T09:23:41.218Z,92.60
2018-02-03T09:26:09.559Z,91.80
2018-02-03T09:28:37.749Z,92.10
2018-02-03T09:31:05.933Z,90.60
2018-02-03T09:33:34.136Z,89.70
2018-02-03T09:36:03.137Z,88.90
2018-02-03T09:38:31.325Z,87.70
2018-02-03T09:40:59.529Z,88.70
2018-02-03T09:43:28.595Z,89.50
2018-02-03T09:45:57.363Z,89.50
2018-02-03T09:48:25.546Z,88.50
2018-02-03T09:50:53.744Z,86.70
2018-02-03T09:53:21.976Z,85.10
2018-02-03T09:55:50.229Z,87.10
2018-02-03T09:58:18.440Z,87.50
2018-02-03T10:00:46.664Z,85.90
2018-02-03T10:03:14.844Z,85.60
2018-02-03T10:05:43.642Z,86.90
2018-02-03T10:08:12.634Z,85.90
2018-02-03T10:10:41.628Z,86.70
2018-02-03T10:13:10.672Z,86.10
2018-02-03T10:15:38.892Z,86.10
2018-02-03T10:18:07.093Z,85.50
2018-02-03T10:20:35.292Z,84.80
2018-02-03T10:23:03.502Z,84.70
2018-02-03T10:25:31.709Z,83.80
2018-02-03T10:27:59.961Z,83.80
2018-02-03T10:30:29.252Z,85.10
2018-02-03T10:32:57.454Z,84.00
2018-02-03T10:35:27.166Z,82.20
2018-02-03T10:37:55.434Z,82.20
2018-02-03T10:40:23.660Z,82.80
2018-02-03T10:42:51.837Z,81.50
2018-02-03T10:45:20.935Z,80.10
2018-02-03T10:47:49.162Z,80.80
2018-02-03T10:50:17.337Z,80.80
2018-02-03T10:52:45.544Z,82.10
2018-02-03T10:55:13.788Z,80.90
2018-02-03T10:57:41.996Z,82.00
2018-02-03T11:00:10.212Z,80.40
2018-02-03T11:02:39.152Z,81.60
2018-02-03T11:05:07.324Z,81.70
2018-02-03T11:07:35.540Z,82.40
2018-02-03T11:10:04.556Z,83.50
2018-02-03T11:12:32.825Z,83.50
2018-02-03T11:15:02.328Z,83.50
2018-02-03T11:17:31.302Z,83.40
2018-02-03T11:19:59.529Z,83.50
2018-02-03T11:22:27.728Z,85.40
2018-02-03T11:24:55.933Z,84.20
2018-02-03T11:27:24.954Z,83.50
2018-02-03T11:29:53.136Z,83.60
2018-02-03T11:32:21.321Z,83.50
2018-02-03T11:34:49.537Z,82.60
2018-02-03T11:37:17.757Z,81.90
2018-02-03T11:39:45.976Z,81.80
2018-02-03T11:42:14.182Z,80.10
2018-02-03T11:44:42.377Z,80.70
2018-02-03T11:47:10.616Z,81.50
2018-02-03T11:49:39.562Z,82.00
2018-02-03T11:52:07.760Z,82.10
2018-02-03T11:54:37.157Z,81.50
2018-02-03T11:57:05.376Z,81.30
2018-02-03T11:59:33.556Z,80.10
2018-02-03T12:02:01.756Z,80.60
2018-02-03T12:04:29.956Z,78.90
2018-02-03T12:06:58.158Z,78.20
2018-02-03T12:09:26.341Z,77.50
2018-02-03T12:11:54.568Z,75.90
2018-02-03T12:14:22.768Z,76.10
2018-02-03T12:16:51.760Z,75.30
2018-02-03T12:19:20.724Z,75.40
2018-02-03T12:21:49.135Z,75.40
2018-02-03T12:24:18.110Z,75.70
2018-02-03T12:26:46.292Z,75.60
2018-02-03T12:29:15.260Z,76.70
2018-02-03T12:31:43.456Z,76.80
2018-02-03T12:34:12.568Z,75.80
2018-02-03T12:36:40.797Z,77.40
2018-02-03T12:39:08.989Z,77.70
2018-02-03T12:41:37.192Z,76.80
2018-02-03T12:44:05.418Z,76.90
2018-02-03T12:46:33.621Z,77.40
2018-02-03T12:49:02.957Z,78.10
2018-02-03T12:51:32.004Z,78.30
2018-02-03T12:54:00.813Z,76.50
2018-02-03T12:56:30.619Z,77.20
2018-02-03T12:58:59.581Z,77.40
2018-02-03T13:01:28.112Z,77.40
2018-02-03T13:03:56.320Z,78.10
2018-02-03T13:06:24.520Z,75.90
2018-02-03T13:08:52.796Z,74.20
2018-02-03T13:11:21.029Z,73.50
2018-02-03T13:13:49.227Z,72.80
2018-02-03T13:16:17.405Z,71.60
2018-02-03T13:18:45.797Z,74.00
2018-02-03T13:21:13.985Z,73.40
2018-02-03T13:23:42.965Z,73.20
2018-02-03T13:26:11.268Z,73.20
2018-02-03T13:28:40.236Z,73.70
2018-02-03T13:31:09.224Z,74.10
2018-02-03T13:33:37.479Z,74.10
2018-02-03T13:36:05.836Z,72.60
2018-02-03T13:38:34.037Z,70.90
2018-02-03T13:41:02.240Z,70.00
2018-02-03T13:43:31.237Z,70.50
2018-02-03T13:46:00.271Z,71.50
2018-02-03T13:48:28.476Z,71.40
2018-02-03T13:50:56.683Z,72.40
2018-02-03T13:53:24.940Z,72.30
2018-02-03T13:55:53.927Z,73.40
2018-02-03T13:58:23.000Z,71.20
2018-02-03T14:00:51.176Z,70.90
2018-02-03T14:03:19.360Z,72.30
2018-02-03T14:05:47.558Z,72.80
2018-02-03T14:08:17.216Z,71.70
2018-02-03T14:10:45.441Z,71.70
2018-02-03T14:13:13.653Z,70.80
2018-02-03T14:15:41.852Z,71.80
2018-02-03T14:18:10.684Z,68.70
2018-02-03T14:20:38.919Z,68.10
2018-02-03T14:23:07.136Z,70.00
2018-02-03T14:25:35.357Z,70.10
2018-02-03T14:28:03.541Z,69.10
2018-02-03T14:30:31.776Z,67.60
2018-02-03T14:32:59.952Z,67.50
2018-02-03T14:35:28.177Z,68.80
2018-02-03T14:37:57.144Z,69.30
2018-02-03T14:40:25.358Z,69.30
2018-02-03T14:42:53.562Z,67.60
2018-02-03T14:45:21.857Z,67.60
2018-02-03T14:47:50.036Z,68.60
2018-02-03T14:50:18.260Z,67.10
2018-02-03T14:52:46.467Z,68.30
2018-02-03T14:55:14.650Z,66.90
2018-02-03T14:57:42.952Z,67.40
2018-02-03T15:00:11.485Z,68.40
2018-02-03T15:02:39.692Z,70.00
2018-02-03T15:05:08.033Z,69.00
2018-02-03T15:07:36.229Z,70.50
2018-02-03T15:10:04.426Z,71.60
2018-02-03T15:12:32.673Z,71.70
2018-02-03T15:15:00.887Z,71.90
2018-02-03T15:17:29.867Z,73.20
2018-02-03T15:19:58.096Z,73.30
2018-02-03T15:22:26.308Z,73.30
2018-02-03T15:24:54.549Z,73.30
2018-02-03T15:27:22.808Z,73.10
2018-02-03T15:29:50.992Z,74.60
2018-02-03T15:32:19.237Z,75.30
2018-02-03T15:34:48.185Z,75.70
2018-02-03T15:37:16.392Z,75.60
2018-02-03T15:39:45.366Z,76.30
2018-02-03T15:42:13.550Z,76.30
2018-02-03T15:44:41.776Z,77.10
2018-02-03T15:47:10.047Z,77.50
2018-02-03T15:49:38.620Z,77.90
2018-02-03T15:52:06.804Z,78.50
2018-02-03T15:54:35.031Z,79.20
2018-02-03T15:57:03.989Z,78.70
2018-02-03T15:59:32.323Z,78.70
2018-02-03T16:02:00.553Z,78.60
2018-02-03T16:04:28.804Z,78.90
2018-02-03T16:06:56.993Z,78.50
2018-02-03T16:09:25.226Z,77.50
2018-02-03T16:11:53.437Z,76.70
2018-02-03T16:14:21.682Z,76.70
2018-02-03T16:16:49.917Z,76.80
2018-02-03T16:19:18.717Z,76.90
2018-02-03T16:21:47.664Z,76.90
2018-02-03T16:24:15.860Z,77.00
2018-02-03T16:26:44.064Z,76.70
2018-02-03T16:29:12.295Z,76.10
2018-02-03T16:31:40.528Z,76.00
2018-02-03T16:34:08.757Z,75.50
2018-02-03T16:36:37.012Z,75.70
2018-02-03T16:39:05.220Z,76.80
2018-02-03T16:41:34.164Z,75.50
2018-02-03T16:44:02.393Z,75.50
2018-02-03T16:46:30.645Z,74.80
2018-02-03T16:48:58.822Z,74.50
2018-02-03T16:51:27.025Z,74.10
2018-02-03T16:53:55.917Z,74.00
2018-02-03T16:59:23.104Z,73.70
2018-02-03T17:01:51.328Z,73.20
2018-02-03T17:04:19.510Z,72.60
2018-02-03T17:06:48.508Z,73.10
2018-02-03T17:09:17.493Z,72.90
2018-02-03T17:11:46.505Z,71.90
2018-02-03T17:14:14.712Z,71.90
2018-02-03T17:16:42.932Z,72.10
2018-02-03T17:19:11.116Z,72.50
2018-02-03T17:21:40.119Z,71.60
2018-02-03T17:24:08.836Z,71.70
2018-02-03T17:26:37.060Z,71.40
2018-02-03T17:29:06.370Z,71.90
2018-02-03T17:31:35.445Z,71.00
2018-02-03T17:34:03.652Z,71.00
2018-02-03T17:36:37.564Z,71.00
2018-02-03T17:39:16.528Z,71.10
2018-02-03T17:41:44.838Z,71.20
2018-02-03T17:44:13.820Z,71.90
2018-02-03T17:46:47.590Z,72.10
2018-02-03T17:49:15.924Z,72.30
2018-02-03T17:51:44.153Z,72.90
2018-02-03T17:54:12.353Z,73.00
2018-02-03T17:59:46.675Z,74.10
2018-02-03T18:02:14.881Z,74.70
2018-02-03T18:04:43.088Z,75.00
2018-02-03T18:07:11.333Z,75.10
2018-02-03T18:09:40.355Z,74.50
2018-02-03T18:12:08.635Z,74.10
2018-02-03T18:14:36.844Z,73.80
2018-02-03T18:17:05.036Z,72.90
2018-02-03T18:19:34.036Z,72.80
2018-02-03T18:22:02.279Z,72.80
2018-02-03T18:24:30.471Z,72.70
2018-02-03T18:26:59.734Z,72.20
2018-02-03T18:29:27.940Z,72.20
2018-02-03T18:31:56.896Z,72.60
2018-02-03T18:34:25.109Z,72.60
2018-02-03T18:36:54.069Z,72.70
2018-02-03T18:39:22.447Z,72.60
2018-02-03T18:41:50.649Z,72.60
2018-02-03T18:44:19.813Z,72.60
2018-02-03T18:46:48.132Z,72.60
2018-02-03T18:49:17.109Z,72.80
2018-02-03T18:51:46.076Z,73.00
2018-02-03T18:54:14.939Z,72.70
2018-02-03T18:56:43.188Z,73.20
2018-02-03T18:59:12.235Z,72.80
2018-02-03T19:01:40.420Z,72.80
2018-02-03T19:04:08.624Z,71.60
2018-02-03T19:06:37.612Z,71.10
2018-02-03T19:09:06.584Z,71.30
2018-02-03T19:11:34.783Z,71.30
2018-02-03T19:14:03.775Z,71.60
2018-02-03T19:16:32.297Z,71.70
2018-02-03T19:19:00.569Z,71.60
2018-02-03T19:21:28.765Z,71.40
2018-02-03T19:23:57.184Z,71.70
2018-02-03T19:26:25.479Z,71.30
2018-02-03T19:28:53.730Z,71.10
2018-02-03T19:31:22.732Z,70.40
2018-02-03T19:33:50.917Z,70.50
2018-02-03T19:36:19.153Z,70.50
2018-02-03T19:38:48.129Z,69.60
2018-02-03T19:41:16.338Z,69.50
2018-02-03T19:43:44.526Z,69.20
2018-02-03T19:46:12.701Z,69.20
2018-02-03T19:48:40.900Z,69.10
2018-02-03T19:51:09.104Z,69.10
2018-02-03T19:53:37.327Z,69.10
2018-02-03T19:56:05.722Z,69.30
2018-02-03T19:58:33.972Z,69.70
2018-02-03T20:01:02.157Z,70.20
2018-02-03T20:03:30.368Z,70.40
2018-02-03T20:05:58.576Z,70.30
2018-02-03T20:08:27.680Z,69.70
2018-02-03T20:10:55.899Z,69.70
2018-02-03T20:13:24.112Z,69.10
2018-02-03T20:15:53.312Z,68.70
2018-02-03T20:18:22.261Z,69.10
2018-02-03T20:20:50.464Z,69.00
2018-02-03T20:23:19.440Z,67.80
2018-02-03T20:25:47.666Z,67.70
2018-02-03T20:28:15.923Z,67.50
2018-02-03T20:30:44.114Z,67.80
2018-02-03T20:33:12.677Z,67.90
2018-02-03T20:35:40.933Z,67.00
2018-02-03T20:38:09.132Z,66.70
2018-02-03T20:40:37.356Z,66.90
2018-02-03T20:43:05.564Z,67.00
2018-02-03T20:45:34.611Z,67.10
2018-02-03T20:48:03.053Z,67.10
2018-02-03T20:50:31.261Z,67.00
2018-02-03T20:53:00.187Z,66.40
2018-02-03T20:55:28.372Z,66.20
2018-02-03T20:57:57.382Z,66.30
2018-02-03T21:00:25.569Z,66.30
2018-02-03T21:02:53.781Z,66.80
2018-02-03T21:05:22.003Z,67.00
2018-02-03T21:07:50.252Z,67.50
2018-02-03T21:10:19.142Z,67.10
2018-02-03T21:12:48.128Z,66.20
2018-02-03T21:15:16.398Z,67.10
2018-02-03T21:17:44.572Z,67.20
2018-02-03T21:20:12.784Z,67.50
2018-02-03T21:22:41.016Z,67.10
2018-02-03T21:25:09.237Z,66.50
2018-02-03T21:27:37.437Z,65.60
2018-02-03T21:30:05.629Z,66.60
2018-02-03T21:32:33.833Z,64.10
2018-02-03T21:35:02.885Z,65.40
2018-02-03T21:37:31.088Z,65.30
2018-02-03T21:39:59.325Z,64.70
2018-02-03T21:42:27.529Z,64.30
2018-02-03T21:44:55.714Z,63.90
2018-02-03T21:47:24.699Z,64.50
2018-02-03T21:49:52.900Z,63.90
2018-02-03T21:52:21.126Z,64.50
2018-02-03T21:54:49.309Z,63.80
2018-02-03T21:57:17.600Z,63.80
2018-02-03T21:59:46.863Z,64.20
2018-02-03T22:02:15.092Z,64.10
2018-02-03T22:04:44.117Z,64.50
2018-02-03T22:07:12.325Z,64.60
2018-02-03T22:09:40.579Z,64.30
2018-02-03T22:12:08.772Z,64.60
2018-02-03T22:14:36.952Z,65.10
2018-02-03T22:17:05.294Z,64.70
2018-02-03T22:19:33.528Z,65.10
2018-02-03T22:22:02.611Z,64.00
2018-02-03T22:24:31.567Z,63.30
2018-02-03T22:26:59.753Z,63.30
2018-02-03T22:29:28.044Z,63.70
2018-02-03T22:31:56.296Z,63.60
2018-02-03T22:34:24.512Z,62.80
2018-02-03T22:36:52.722Z,63.70
2018-02-03T22:39:20.942Z,63.90
2018-02-03T22:41:49.144Z,64.10
2018-02-03T22:44:17.400Z,63.90
2018-02-03T22:46:46.380Z,65.00
2018-02-03T22:49:14.610Z,64.90
2018-02-03T22:51:42.825Z,65.30
2018-02-03T22:54:11.052Z,66.20
2018-02-03T22:56:39.249Z,66.70
2018-02-03T22:59:07.455Z,66.70
2018-02-03T23:01:35.672Z,67.10
2018-02-03T23:04:03.892Z,67.00
2018-02-03T23:06:32.101Z,66.80
2018-02-03T23:09:00.302Z,66.80
2018-02-03T23:11:28.528Z,66.50
2018-02-03T23:13:57.504Z,66.60
2018-02-03T23:16:25.728Z,66.50
2018-02-03T23:18:53.909Z,66.00
2018-02-03T23:21:22.087Z,66.30
2018-02-03T23:23:50.304Z,66.60
2018-02-03T23:26:18.498Z,66.30
2018-02-03T23:28:47.699Z,66.70
2018-02-03T23:31:15.976Z,66.60
2018-02-03T23:33:44.184Z,66.20
2018-02-03T23:36:12.485Z,65.90
2018-02-03T23:38:40.673Z,66.20
2018-02-03T23:41:08.897Z,65.50
2018-02-03T23:43:37.089Z,65.40
2018-02-03T23:46:05.288Z,65.20
2018-02-03T23:48:33.506Z,65.40
2018-02-03T23:51:01.711Z,65.50
2018-02-03T23:53:29.892Z,66.00
2018-02-03T23:55:58.184Z,65.70
2018-02-03T23:58:26.415Z,65.80
